Time,TemperatureF,DewpointF,PressureIn,WindDirection,WindDirectionDegrees,WindSpeedMPH,WindSpeedGustMPH,Humidity,HourlyPrecipIn,Conditions,Clouds,dailyrainin,SolarRadiationWatts/m^2,SoftwareType,DateUTC
2013-05-16 00:14:00,58.0,49.0,29.95,West,272,2.0,13.0,73,0.00,,,0.00,0,weatherlink.com 1.10,2013-05-16 07:14:00,
2013-05-16 00:29:00,57.5,49.0,29.94,West,274,5.0,12.0,73,0.00,,,0.00,0,weatherlink.com 1.10,2013-05-16 07:29:00,
2013-05-16 00:44:00,57.3,49.0,29.94,WNW,286,6.0,13.0,74,0.00,,,0.00,0,weatherlink.com 1.10,2013-05-16 07:44:00,
2013-05-16 00:59:00,57.1,49.0,29.94,WNW,283,10.0,12.0,74,0.00,,,0.00,0,weatherlink.com 1.10,2013-05-16 07:59:00,
2013-05-16 01:14:00,57.1,49.0,29.94,West,270,5.0,13.0,74,0.00,,,0.00,0,weatherlink.com 1.10,2013-05-16 08:14:00,
2013-05-16 01:29:00,57.1,49.0,29.95,West,273,4.0,13.0,74,0.00,,,0.00,0,weatherlink.com 1.10,2013-05-16 08:29:00,
2013-05-16 01:44:00,57.0,49.0,29.93,West,263,5.0,14.0,75,0.00,,,0.00,0,weatherlink.com 1.10,2013-05-16 08:44:00,
2013-05-16 01:59:00,56.9,49.0,29.93,WNW,283,6.0,11.0,75,0.00,,,0.00,0,weatherlink.com 1.10,2013-05-16 08:59:00,
2013-05-16 02:14:00,57.2,49.0,29.93,SW,236,6.0,13.0,75,0.00,,,0.00,0,weatherlink.com 1.10,2013-05-16 09:14:00,
2013-05-16 02:29:00,57.4,50.0,29.93,WSW,244,5.0,13.0,75,0.00,,,0.00,0,weatherlink.com 1.10,2013-05-16 09:29:00,
2013-05-16 02:44:00,57.5,50.0,29.93,West,269,4.0,10.0,75,0.00,,,0.00,0,weatherlink.com 1.10,2013-05-16 09:44:00,
2013-05-16 02:59:00,57.9,50.0,29.93,West,273,7.0,9.0,75,0.00,,,0.00,0,weatherlink.com 1.10,2013-05-16 09:59:00,
2013-05-16 03:14:00,58.2,50.0,29.92,WNW,298,8.0,12.0,74,0.00,,,0.00,0,weatherlink.com 1.10,2013-05-16 10:14:00,
2013-05-16 03:29:00,58.6,50.0,29.92,West,271,9.0,16.0,73,0.00,,,0.00,0,weatherlink.com 1.10,2013-05-16 10:29:00,
2013-05-16 03:44:00,58.7,50.0,29.92,WNW,292,5.0,13.0,73,0.00,,,0.00,0,weatherlink.com 1.10,2013-05-16 10:44:00,
2013-05-16 03:59:00,58.6,50.0,29.92,WNW,294,3.0,9.0,74,0.00,,,0.00,0,weatherlink.com 1.10,2013-05-16 10:59:00,
2013-05-16 04:14:00,58.7,50.0,29.92,WNW,296,10.0,16.0,73,0.00,,,0.00,0,weatherlink.com 1.10,2013-05-16 11:14:00,
2013-05-16 04:29:00,58.8,50.0,29.92,West,275,10.0,10.0,73,0.00,,,0.00,0,weatherlink.com 1.10,2013-05-16 11:29:00,
2013-05-16 04:44:00,58.9,51.0,29.92,West,267,10.0,13.0,74,0.00,,,0.00,0,weatherlink.com 1.10,2013-05-16 11:44:00,
2013-05-16 04:59:00,58.8,51.0,29.91,West,266,2.0,13.0,74,0.00,,,0.00,0,weatherlink.com 1.10,2013-05-16 11:59:00,
2013-05-16 05:14:00,58.5,51.0,29.92,West,273,8.0,14.0,75,0.00,,,0.00,0,weatherlink.com 1.10,2013-05-16 12:14:00,
2013-05-16 05:29:00,58.4,51.0,29.92,WNW,288,11.0,16.0,76,0.00,,,0.00,0,weatherlink.com 1.10,2013-05-16 12:29:00,
2013-05-16 05:44:00,58.5,51.0,29.92,West,277,3.0,11.0,76,0.00,,,0.00,0,weatherlink.com 1.10,2013-05-16 12:44:00,
2013-05-16 05:59:00,58.5,51.0,29.93,NW,320,2.0,12.0,76,0.00,,,0.00,0,weatherlink.com 1.10,2013-05-16 12:59:00,
2013-05-16 06:14:00,58.5,51.0,29.93,WNW,295,6.0,12.0,76,0.00,,,0.00,9,weatherlink.com 1.10,2013-05-16 13:14:00,
2013-05-16 06:29:00,58.6,51.0,29.94,West,277,5.0,12.0,76,0.00,,,0.00,16,weatherlink.com 1.10,2013-05-16 13:29:00,
2013-05-16 06:44:00,58.8,51.0,29.95,West,279,3.0,9.0,76,0.00,,,0.00,26,weatherlink.com 1.10,2013-05-16 13:44:00,
2013-05-16 06:59:00,58.9,51.0,29.95,WNW,301,6.0,12.0,75,0.00,,,0.00,30,weatherlink.com 1.10,2013-05-16 13:59:00,
2013-05-16 07:14:00,59.1,51.0,29.96,WNW,284,3.0,11.0,75,0.00,,,0.00,32,weatherlink.com 1.10,2013-05-16 14:14:00,
2013-05-16 07:29:00,59.0,51.0,29.96,WNW,286,4.0,8.0,76,0.00,,,0.00,44,weatherlink.com 1.10,2013-05-16 14:29:00,
2013-05-16 07:44:00,59.0,52.0,29.96,WNW,289,3.0,12.0,77,0.00,,,0.00,60,weatherlink.com 1.10,2013-05-16 14:44:00,
2013-05-16 07:59:00,58.9,52.0,29.96,NW,304,6.0,12.0,77,0.00,,,0.00,62,weatherlink.com 1.10,2013-05-16 14:59:00,
2013-05-16 08:14:00,59.0,52.0,29.96,West,263,9.0,18.0,78,0.00,,,0.00,69,weatherlink.com 1.10,2013-05-16 15:14:00,
2013-05-16 08:29:00,59.3,52.0,29.97,WNW,296,9.0,16.0,77,0.00,,,0.00,120,weatherlink.com 1.10,2013-05-16 15:29:00,
2013-05-16 08:44:00,59.9,53.0,29.97,NNW,329,5.0,15.0,77,0.00,,,0.00,160,weatherlink.com 1.10,2013-05-16 15:44:00,
2013-05-16 09:00:00,60.5,53.0,29.97,West,279,6.0,14.0,76,0.00,,,0.00,109,weatherlink.com 1.10,2013-05-16 16:00:00,
2013-05-16 09:15:00,60.6,53.0,29.97,WSW,247,7.0,15.0,76,0.00,,,0.00,155,weatherlink.com 1.10,2013-05-16 16:15:00,
2013-05-16 09:45:00,61.1,54.0,29.98,West,266,7.0,16.0,77,0.00,,,0.00,183,weatherlink.com 1.10,2013-05-16 16:45:00,
2013-05-16 10:00:00,61.7,54.0,29.98,West,266,6.0,13.0,76,0.00,,,0.00,278,weatherlink.com 1.10,2013-05-16 17:00:00,
2013-05-16 10:15:00,63.3,55.0,29.98,WSW,254,4.0,13.0,74,0.00,,,0.00,323,weatherlink.com 1.10,2013-05-16 17:15:00,
2013-05-16 10:30:00,64.3,55.0,29.98,West,260,3.0,11.0,72,0.00,,,0.00,304,weatherlink.com 1.10,2013-05-16 17:30:00,
2013-05-16 10:45:00,64.8,56.0,29.99,West,273,3.0,7.0,73,0.00,,,0.00,374,weatherlink.com 1.10,2013-05-16 17:45:00,
2013-05-16 11:00:00,65.1,55.0,29.99,WSW,257,1.0,8.0,70,0.00,,,0.00,209,weatherlink.com 1.10,2013-05-16 18:00:00,
2013-05-16 11:15:00,65.4,56.0,29.98,West,277,7.0,7.0,71,0.00,,,0.00,255,weatherlink.com 1.10,2013-05-16 18:15:00,
2013-05-16 11:30:00,66.2,57.0,29.98,West,274,4.0,10.0,71,0.00,,,0.00,397,weatherlink.com 1.10,2013-05-16 18:30:00,
2013-05-16 11:45:00,68.8,59.0,29.98,WNW,294,6.0,9.0,72,0.00,,,0.00,979,weatherlink.com 1.10,2013-05-16 18:45:00,
2013-05-16 12:00:00,69.9,57.0,29.98,West,277,0.0,12.0,64,0.00,,,0.00,392,weatherlink.com 1.10,2013-05-16 19:00:00,
2013-05-16 12:15:00,69.6,56.0,29.98,West,274,5.0,12.0,63,0.00,,,0.00,422,weatherlink.com 1.10,2013-05-16 19:15:00,
2013-05-16 12:30:00,71.7,58.0,29.97,WNW,296,3.0,9.0,63,0.00,,,0.00,1023,weatherlink.com 1.10,2013-05-16 19:30:00,
2013-05-16 12:45:00,73.1,57.0,29.97,West,269,7.0,11.0,58,0.00,,,0.00,940,weatherlink.com 1.10,2013-05-16 19:45:00,
2013-05-16 13:00:00,73.5,56.0,29.96,WNW,285,8.0,12.0,54,0.00,,,0.00,791,weatherlink.com 1.10,2013-05-16 20:00:00,
2013-05-16 13:15:00,73.2,55.0,29.95,West,278,14.0,15.0,54,0.00,,,0.00,589,weatherlink.com 1.10,2013-05-16 20:15:00,
2013-05-16 13:30:00,73.8,57.0,29.95,NW,313,7.0,15.0,56,0.00,,,0.00,812,weatherlink.com 1.10,2013-05-16 20:30:00,
2013-05-16 13:45:00,75.1,56.0,29.95,WNW,299,4.0,14.0,52,0.00,,,0.00,926,weatherlink.com 1.10,2013-05-16 20:45:00,
2013-05-16 14:00:00,74.8,58.0,29.94,West,273,2.0,12.0,56,0.00,,,0.00,700,weatherlink.com 1.10,2013-05-16 21:00:00,
2013-05-16 14:15:00,75.2,59.0,29.95,West,278,5.0,15.0,58,0.00,,,0.00,884,weatherlink.com 1.10,2013-05-16 21:15:00,
2013-05-16 14:30:00,75.4,58.0,29.94,SW,217,7.0,12.0,55,0.00,,,0.00,865,weatherlink.com 1.10,2013-05-16 21:30:00,
2013-05-16 14:45:00,75.1,57.0,29.94,West,269,2.0,13.0,53,0.00,,,0.00,840,weatherlink.com 1.10,2013-05-16 21:45:00,
2013-05-16 15:00:00,74.8,56.0,29.93,WNW,288,6.0,15.0,52,0.00,,,0.00,823,weatherlink.com 1.10,2013-05-16 22:00:00,
2013-05-16 15:15:00,74.7,55.0,29.93,WSW,258,9.0,14.0,51,0.00,,,0.00,800,weatherlink.com 1.10,2013-05-16 22:15:00,
2013-05-16 15:30:00,74.4,56.0,29.93,SW,235,7.0,15.0,53,0.00,,,0.00,749,weatherlink.com 1.10,2013-05-16 22:30:00,
2013-05-16 15:45:00,73.5,55.0,29.92,WSW,239,9.0,14.0,52,0.00,,,0.00,445,weatherlink.com 1.10,2013-05-16 22:45:00,
2013-05-16 16:00:00,72.4,54.0,29.92,WSW,250,10.0,17.0,52,0.00,,,0.00,406,weatherlink.com 1.10,2013-05-16 23:00:00,
2013-05-16 16:15:00,71.9,53.0,29.92,West,265,11.0,18.0,51,0.00,,,0.00,292,weatherlink.com 1.10,2013-05-16 23:15:00,
2013-05-16 16:30:00,72.6,54.0,29.92,SW,231,7.0,18.0,52,0.00,,,0.00,754,weatherlink.com 1.10,2013-05-16 23:30:00,
2013-05-16 16:45:00,73.5,54.0,29.92,WNW,282,7.0,14.0,51,0.00,,,0.00,770,weatherlink.com 1.10,2013-05-16 23:45:00,
2013-05-16 17:00:00,73.3,54.0,29.92,West,275,6.0,17.0,51,0.00,,,0.00,462,weatherlink.com 1.10,2013-05-17 00:00:00,
2013-05-16 17:16:00,72.6,52.0,29.91,West,278,5.0,20.0,49,0.00,,,0.00,554,weatherlink.com 1.10,2013-05-17 00:16:00,
2013-05-16 17:32:00,71.9,52.0,29.91,West,271,12.0,19.0,49,0.00,,,0.00,534,weatherlink.com 1.10,2013-05-17 00:32:00,
2013-05-16 17:46:00,70.7,49.0,29.91,NW,325,12.0,17.0,47,0.00,,,0.00,443,weatherlink.com 1.10,2013-05-17 00:46:00,
2013-05-16 18:01:00,69.3,50.0,29.91,WNW,286,6.0,19.0,51,0.00,,,0.00,385,weatherlink.com 1.10,2013-05-17 01:01:00,
2013-05-16 18:16:00,67.7,50.0,29.91,West,281,8.0,16.0,54,0.00,,,0.00,272,weatherlink.com 1.10,2013-05-17 01:16:00,
2013-05-16 18:31:00,67.1,50.0,29.91,WSW,240,8.0,15.0,54,0.00,,,0.00,274,weatherlink.com 1.10,2013-05-17 01:31:00,
2013-05-16 18:46:00,66.1,49.0,29.91,West,270,8.0,18.0,54,0.00,,,0.00,178,weatherlink.com 1.10,2013-05-17 01:46:00,
2013-05-16 19:01:00,64.8,49.0,29.91,West,273,4.0,15.0,56,0.00,,,0.00,56,weatherlink.com 1.10,2013-05-17 02:01:00,
2013-05-16 19:16:00,63.6,49.0,29.91,West,271,7.0,21.0,60,0.00,,,0.00,40,weatherlink.com 1.10,2013-05-17 02:16:00,
2013-05-16 19:31:00,63.0,47.0,29.91,NW,306,8.0,15.0,57,0.00,,,0.00,44,weatherlink.com 1.10,2013-05-17 02:31:00,
2013-05-16 19:46:00,62.6,47.0,29.91,West,277,5.0,14.0,57,0.00,,,0.00,25,weatherlink.com 1.10,2013-05-17 02:46:00,
2013-05-16 20:01:00,61.8,47.0,29.92,WSW,246,10.0,20.0,59,0.00,,,0.00,9,weatherlink.com 1.10,2013-05-17 03:01:00,
2013-05-16 20:16:00,61.2,47.0,29.92,WSW,255,8.0,16.0,61,0.00,,,0.00,0,weatherlink.com 1.10,2013-05-17 03:16:00,
2013-05-16 20:31:00,60.8,48.0,29.92,West,272,4.0,16.0,62,0.00,,,0.00,0,weatherlink.com 1.10,2013-05-17 03:31:00,
2013-05-16 20:46:00,60.2,49.0,29.92,WNW,301,5.0,14.0,66,0.00,,,0.00,0,weatherlink.com 1.10,2013-05-17 03:46:00,
2013-05-16 21:01:00,59.6,49.0,29.92,WSW,256,9.0,14.0,69,0.00,,,0.00,0,weatherlink.com 1.10,2013-05-17 04:01:00,
2013-05-16 21:16:00,59.0,49.0,29.93,West,279,4.0,17.0,69,0.00,,,0.00,0,weatherlink.com 1.10,2013-05-17 04:16:00,
2013-05-16 21:31:00,58.5,49.0,29.93,WNW,282,4.0,10.0,72,0.00,,,0.00,0,weatherlink.com 1.10,2013-05-17 04:31:00,
2013-05-16 21:46:00,58.0,50.0,29.94,WSW,251,5.0,10.0,74,0.00,,,0.00,0,weatherlink.com 1.10,2013-05-17 04:46:00,
2013-05-16 22:01:00,57.5,50.0,29.94,WSW,253,7.0,11.0,76,0.00,,,0.00,0,weatherlink.com 1.10,2013-05-17 05:01:00,
2013-05-16 22:16:00,57.0,50.0,29.94,SW,232,8.0,11.0,76,0.00,,,0.00,0,weatherlink.com 1.10,2013-05-17 05:16:00,
2013-05-16 22:31:00,56.6,49.0,29.95,WNW,284,2.0,10.0,77,0.00,,,0.00,0,weatherlink.com 1.10,2013-05-17 05:31:00,
2013-05-16 22:46:00,56.1,49.0,29.94,WSW,250,7.0,10.0,76,0.00,,,0.00,0,weatherlink.com 1.10,2013-05-17 05:46:00,
2013-05-16 23:01:00,55.9,49.0,29.94,WSW,251,3.0,8.0,77,0.00,,,0.00,0,weatherlink.com 1.10,2013-05-17 06:01:00,
2013-05-16 23:16:00,55.6,49.0,29.94,WSW,237,6.0,11.0,77,0.00,,,0.00,0,weatherlink.com 1.10,2013-05-17 06:16:00,
2013-05-16 23:31:00,55.3,48.0,29.94,WNW,288,5.0,10.0,77,0.00,,,0.00,0,weatherlink.com 1.10,2013-05-17 06:31:00,
2013-05-16 23:46:00,55.2,48.0,29.94,West,272,3.0,12.0,77,0.00,,,0.00,0,weatherlink.com 1.10,2013-05-17 06:46:00,